Time;durP1;ratioP1;P1;durP2;ratioP2;P2;SDS_P1;SDS_P2;PMS_P1;PMS_P2;Temp;Humidity;BMP_temperature;BMP_pressure;BME280_temperature;BME280_humidity;BME280_pressure;Samples;Min_cycle;Max_cycle;Signal;HPM_P1;HPM_P2
2022/07/07 00:00:37;;;;;;;3.92;1.83;;;;;;;24.22;33.75;99815.91;4498397;31;34899;-57
2022/07/07 00:03:04;;;;;;;3.03;1.73;;;;;;;24.07;34.36;99812.44;4497976;31;34606;-57
2022/07/07 00:05:32;;;;;;;4.07;1.60;;;;;;;24.02;34.14;99809.50;4500124;31;34607;-58
2022/07/07 00:08:00;;;;;;;2.78;1.42;;;;;;;23.97;34.28;99812.81;4500113;31;33670;-57
2022/07/07 00:10:28;;;;;;;2.75;1.37;;;;;;;23.89;34.35;99816.53;4494380;31;34637;-59
2022/07/07 00:12:55;;;;;;;3.62;1.60;;;;;;;23.74;34.61;99824.00;4498734;31;35310;-57
2022/07/07 00:15:23;;;;;;;3.65;1.55;;;;;;;23.33;35.35;99818.34;4497496;31;32293;-58
2022/07/07 00:17:50;;;;;;;2.00;1.25;;;;;;;23.45;35.20;99823.09;4500230;31;33633;-58
2022/07/07 00:20:18;;;;;;;3.67;1.48;;;;;;;23.48;35.20;99821.84;4499810;31;33976;-58
2022/07/07 00:22:46;;;;;;;5.47;2.00;;;;;;;23.53;35.19;99819.41;4499087;31;32547;-59
2022/07/07 00:25:13;;;;;;;3.05;1.58;;;;;;;23.38;35.91;99822.19;4493744;31;31853;-58
2022/07/07 00:27:41;;;;;;;3.30;1.70;;;;;;;23.32;35.94;99819.41;4492973;31;34694;-57
2022/07/07 00:30:09;;;;;;;3.03;1.42;;;;;;;23.37;35.91;99811.44;4492753;31;34146;-58
2022/07/07 00:32:37;;;;;;;3.47;1.83;;;;;;;23.56;35.41;99812.66;4495771;31;34085;-56
2022/07/07 00:35:05;;;;;;;2.10;1.27;;;;;;;23.57;35.41;99808.91;4497233;31;34630;-59
2022/07/07 00:37:32;;;;;;;3.37;1.80;;;;;;;23.12;36.11;99811.84;4496672;31;32414;-58
2022/07/07 00:40:00;;;;;;;2.42;1.60;;;;;;;23.25;36.27;99805.69;4494646;31;32924;-58
2022/07/07 00:42:28;;;;;;;3.00;1.75;;;;;;;22.96;36.76;99809.38;4483704;31;34779;-58
2022/07/07 00:44:55;;;;;;;2.65;1.50;;;;;;;22.91;36.84;99803.59;4495638;31;31735;-58
2022/07/07 00:47:23;;;;;;;5.95;1.83;;;;;;;22.98;36.48;99804.56;4498201;31;34843;-57
2022/07/07 00:49:52;;;;;;;4.57;1.85;;;;;;;22.93;36.54;99815.19;4494931;31;35002;-57
2022/07/07 00:52:20;;;;;;;4.25;1.70;;;;;;;22.61;37.10;99808.31;4494540;31;32544;-59
2022/07/07 00:54:57;;;;;;;3.75;1.95;;;;;;;22.61;37.17;99813.75;4496049;31;34519;-59
2022/07/07 00:57:25;;;;;;;2.70;1.67;;;;;;;22.40;37.65;99806.34;4497326;31;33792;-58
2022/07/07 00:59:59;;;;;;;2.78;1.48;;;;;;;22.74;36.86;99813.91;4491403;31;33891;-57
2022/07/07 01:02:30;;;;;;;2.90;1.42;;;;;;;22.75;37.11;99821.91;4492809;31;33854;-60
2022/07/07 01:05:00;;;;;;;3.85;1.85;;;;;;;22.98;36.77;99810.84;4492794;31;33295;-56
2022/07/07 01:07:28;;;;;;;2.90;1.58;;;;;;;23.07;36.58;99814.31;4495910;31;34818;-57
2022/07/07 01:09:57;;;;;;;3.58;1.80;;;;;;;22.93;37.18;99815.19;4493397;31;34100;-58
2022/07/07 01:12:25;;;;;;;3.03;1.60;;;;;;;23.12;36.76;99822.78;4497063;31;33881;-60
2022/07/07 01:14:52;;;;;;;3.75;1.65;;;;;;;23.30;36.49;99816.84;4496752;31;32142;-56
2022/07/07 01:17:20;;;;;;;5.72;1.52;;;;;;;23.23;36.54;99811.31;4493331;31;33720;-58
2022/07/07 01:19:48;;;;;;;3.90;2.20;;;;;;;23.25;36.82;99811.97;4496326;31;33660;-58
2022/07/07 01:22:16;;;;;;;6.45;1.80;;;;;;;23.26;36.82;99812.81;4490322;31;34110;-60
2022/07/07 01:24:44;;;;;;;2.40;1.52;;;;;;;23.44;36.65;99815.09;4491813;31;33687;-59
2022/07/07 01:27:17;;;;;;;2.95;1.65;;;;;;;23.38;36.51;99811.25;4494467;31;33776;-57
2022/07/07 01:29:49;;;;;;;2.78;1.40;;;;;;;23.43;36.45;99814.22;4494799;31;32805;-57
2022/07/07 01:32:17;;;;;;;4.68;1.75;;;;;;;23.20;36.87;99814.44;4494412;31;35003;-61
2022/07/07 01:34:46;;;;;;;3.08;1.62;;;;;;;23.13;37.85;99809.97;4493180;31;33170;-58
2022/07/07 01:37:15;;;;;;;3.05;1.80;;;;;;;23.32;37.08;99813.94;4492357;31;33857;-59
2022/07/07 01:39:43;;;;;;;2.65;1.48;;;;;;;23.23;37.11;99815.94;4491681;31;32380;-60
2022/07/07 01:42:11;;;;;;;4.87;1.60;;;;;;;23.18;37.28;99815.69;4493869;31;35570;-58
2022/07/07 01:44:40;;;;;;;3.50;1.62;;;;;;;23.15;37.46;99814.19;4493785;31;32883;-58
2022/07/07 01:47:10;;;;;;;2.83;1.48;;;;;;;23.01;37.48;99826.84;4492787;31;34054;-58
2022/07/07 01:49:38;;;;;;;7.00;1.77;;;;;;;22.97;37.58;99813.78;4492751;31;34166;-58
2022/07/07 01:52:06;;;;;;;4.28;1.80;;;;;;;22.91;37.59;99815.38;4491186;31;32431;-58
2022/07/07 01:54:35;;;;;;;4.62;2.00;;;;;;;22.90;37.73;99818.31;4495739;31;32001;-59
2022/07/07 01:57:04;;;;;;;4.15;1.60;;;;;;;22.94;37.44;99825.09;4496765;31;35104;-58
2022/07/07 01:59:32;;;;;;;5.15;1.98;;;;;;;22.87;37.68;99829.59;4490978;31;34764;-57
2022/07/07 02:01:59;;;;;;;3.25;1.70;;;;;;;22.79;37.90;99825.09;4492440;31;34827;-58
2022/07/07 02:04:28;;;;;;;3.37;1.90;;;;;;;22.90;37.66;99824.59;4483038;31;32819;-58
2022/07/07 02:06:55;;;;;;;2.60;1.30;;;;;;;22.81;37.54;99817.56;4494165;31;34529;-57
2022/07/07 02:09:23;;;;;;;2.28;1.42;;;;;;;22.75;37.54;99821.06;4493086;31;35290;-58
2022/07/07 02:11:50;;;;;;;3.03;1.58;;;;;;;22.77;37.50;99816.28;4494299;31;33596;-58
2022/07/07 02:14:18;;;;;;;3.45;1.80;;;;;;;22.63;37.79;99814.41;4493841;31;33218;-60
2022/07/07 02:16:46;;;;;;;5.10;1.90;;;;;;;22.68;37.68;99814.69;4496559;31;33532;-58
2022/07/07 02:19:13;;;;;;;3.33;1.67;;;;;;;22.63;37.72;99820.72;4494855;31;34929;-60
2022/07/07 02:21:41;;;;;;;3.47;1.90;;;;;;;22.56;37.71;99811.59;4495307;31;35067;-58
2022/07/07 02:24:08;;;;;;;3.58;1.70;;;;;;;22.40;37.97;99818.09;4496075;31;33962;-60
2022/07/07 02:26:36;;;;;;;3.40;1.73;;;;;;;22.37;38.19;99821.19;4491880;31;33235;-60
2022/07/07 02:29:04;;;;;;;3.17;1.87;;;;;;;22.19;38.46;99823.50;4496511;31;34216;-58
2022/07/07 02:31:32;;;;;;;3.03;1.83;;;;;;;22.19;38.31;99823.50;4494606;31;35458;-58
2022/07/07 02:34:00;;;;;;;2.80;1.42;;;;;;;21.96;38.83;99835.28;4490865;31;33450;-58
2022/07/07 02:36:27;;;;;;;2.78;1.50;;;;;;;21.91;38.96;99821.34;4487477;31;34794;-59
2022/07/07 02:38:55;;;;;;;4.68;1.90;;;;;;;21.89;39.05;99833.47;4490683;31;34684;-58
2022/07/07 02:41:23;;;;;;;2.75;1.58;;;;;;;21.70;39.39;99830.28;4490830;31;33910;-58
2022/07/07 02:43:51;;;;;;;3.08;1.45;;;;;;;21.37;40.14;99827.81;4489231;31;34100;-58
2022/07/07 02:46:19;;;;;;;2.78;1.65;;;;;;;21.52;39.55;99833.31;4495770;31;32733;-60
2022/07/07 02:48:47;;;;;;;3.35;1.80;;;;;;;21.63;39.25;99832.84;4496507;31;34197;-58
2022/07/07 02:51:14;;;;;;;4.40;1.70;;;;;;;21.80;39.38;99838.19;4491386;31;33648;-59
2022/07/07 02:53:42;;;;;;;2.97;1.75;;;;;;;21.89;39.13;99838.91;4494315;31;32219;-59
2022/07/07 02:56:10;;;;;;;3.90;1.80;;;;;;;21.78;39.03;99834.78;4495652;31;33234;-59
2022/07/07 02:58:37;;;;;;;3.53;1.83;;;;;;;21.61;39.58;99834.09;4492370;31;35206;-58
2022/07/07 03:01:05;;;;;;;3.30;1.60;;;;;;;21.88;38.82;99835.34;4491579;31;34199;-58
2022/07/07 03:03:33;;;;;;;2.90;1.70;;;;;;;21.81;39.66;99828.97;4495312;31;33638;-60
2022/07/07 03:06:01;;;;;;;2.62;1.40;;;;;;;21.73;39.70;99839.91;4497457;31;34995;-59
2022/07/07 03:08:28;;;;;;;3.25;1.73;;;;;;;21.83;39.42;99843.25;4497899;31;32736;-56
2022/07/07 03:10:59;;;;;;;4.30;2.00;;;;;;;21.89;39.19;99837.03;4490659;31;33243;-58
2022/07/07 03:13:27;;;;;;;3.35;1.62;;;;;;;21.90;39.05;99833.31;4496585;31;34507;-58
2022/07/07 03:15:55;;;;;;;4.45;1.90;;;;;;;21.71;39.57;99836.56;4490038;31;35071;-60
2022/07/07 03:18:23;;;;;;;3.80;1.80;;;;;;;21.87;39.21;99831.78;4496688;31;36312;-57
2022/07/07 03:20:51;;;;;;;4.22;1.87;;;;;;;21.93;39.28;99829.38;4498091;31;33646;-58
2022/07/07 03:23:20;;;;;;;4.22;2.00;;;;;;;22.04;38.92;99823.44;4495792;31;33090;-58
2022/07/07 03:25:47;;;;;;;4.05;2.17;;;;;;;21.99;39.25;99832.19;4497269;31;34468;-59
2022/07/07 03:28:15;;;;;;;4.20;1.87;;;;;;;21.88;39.83;99829.91;4496494;31;35090;-58
2022/07/07 03:30:43;;;;;;;3.72;2.03;;;;;;;21.95;39.52;99824.56;4494671;31;33396;-58
2022/07/07 03:33:11;;;;;;;3.60;2.00;;;;;;;22.00;39.13;99827.59;4492427;31;33128;-58
2022/07/07 03:35:39;;;;;;;4.40;2.00;;;;;;;21.98;39.24;99832.34;4484940;31;33319;-59
2022/07/07 03:38:07;;;;;;;3.58;2.03;;;;;;;22.03;38.98;99838.12;4486022;31;34103;-58
2022/07/07 03:40:35;;;;;;;3.47;1.80;;;;;;;22.03;38.81;99830.78;4493290;31;33727;-57
2022/07/07 03:43:02;;;;;;;8.05;2.12;;;;;;;22.04;38.89;99834.34;4495287;31;32701;-59
2022/07/07 03:45:30;;;;;;;6.10;2.00;;;;;;;21.97;39.19;99833.41;4495455;31;34498;-59
2022/07/07 03:47:58;;;;;;;6.22;2.50;;;;;;;22.01;39.15;99838.28;4496447;31;34156;-58
2022/07/07 03:50:25;;;;;;;2.83;1.98;;;;;;;22.08;39.21;99841.94;4487965;31;33919;-58
2022/07/07 03:52:53;;;;;;;3.87;2.08;;;;;;;22.04;39.64;99837.06;4495770;31;34458;-58
2022/07/07 03:55:22;;;;;;;3.33;1.87;;;;;;;22.07;39.46;99843.00;4494547;31;33916;-57
2022/07/07 03:57:57;;;;;;;3.92;2.05;;;;;;;22.06;39.41;99840.47;4495880;31;33272;-59
2022/07/07 04:00:24;;;;;;;4.28;2.00;;;;;;;22.07;39.18;99829.34;4496748;31;33597;-58
2022/07/07 04:02:52;;;;;;;3.55;1.67;;;;;;;22.03;39.45;99832.66;4498269;31;34085;-58
2022/07/07 04:05:20;;;;;;;3.42;1.92;;;;;;;22.18;39.22;99830.78;4494838;31;33500;-60
2022/07/07 04:07:47;;;;;;;3.80;2.00;;;;;;;22.31;39.35;99835.59;4494731;31;34852;-58
2022/07/07 04:10:15;;;;;;;5.68;2.10;;;;;;;22.36;39.38;99827.69;4491828;31;34450;-58
2022/07/07 04:12:42;;;;;;;4.87;2.35;;;;;;;22.36;39.49;99826.88;4492809;31;34286;-58
2022/07/07 04:15:10;;;;;;;7.57;2.12;;;;;;;22.50;39.47;99823.25;4495606;31;33754;-57
2022/07/07 04:17:38;;;;;;;3.78;2.25;;;;;;;22.52;39.57;99826.66;4494624;31;35587;-58
2022/07/07 04:20:06;;;;;;;5.93;2.35;;;;;;;22.65;39.37;99825.97;4493319;31;32606;-57
2022/07/07 04:22:34;;;;;;;3.53;1.75;;;;;;;22.75;39.29;99826.53;4498130;31;33334;-57
2022/07/07 04:25:02;;;;;;;7.68;2.10;;;;;;;22.81;39.13;99823.03;4489168;31;32601;-58
2022/07/07 04:27:29;;;;;;;6.03;2.20;;;;;;;22.76;39.34;99818.16;4498697;31;34932;-58
2022/07/07 04:29:57;;;;;;;4.12;1.83;;;;;;;22.83;39.31;99820.97;4496615;31;33753;-59
2022/07/07 04:32:25;;;;;;;5.45;2.17;;;;;;;23.00;39.29;99816.13;4498990;31;33189;-57
2022/07/07 04:34:52;;;;;;;3.80;2.03;;;;;;;23.25;38.99;99820.19;4498114;31;34826;-59
2022/07/07 04:37:21;;;;;;;5.10;2.65;;;;;;;23.35;38.81;99806.19;4493949;31;35445;-59
2022/07/07 04:39:49;;;;;;;4.12;2.28;;;;;;;23.43;38.71;99810.66;4497780;31;32936;-58
2022/07/07 04:42:16;;;;;;;3.62;2.00;;;;;;;23.61;38.38;99818.41;4499286;31;34563;-57
2022/07/07 04:44:44;;;;;;;4.32;2.60;;;;;;;23.55;38.61;99819.19;4489651;31;34724;-59
2022/07/07 04:47:11;;;;;;;4.03;2.20;;;;;;;23.62;38.47;99817.34;4498319;31;34837;-59
2022/07/07 04:49:39;;;;;;;5.12;2.28;;;;;;;23.42;38.90;99814.44;4499769;31;33782;-57
2022/07/07 04:52:07;;;;;;;3.65;2.10;;;;;;;23.54;38.83;99825.69;4498256;31;33423;-58
2022/07/07 04:54:35;;;;;;;4.93;2.25;;;;;;;23.63;38.93;99822.62;4499508;31;33916;-57
2022/07/07 04:57:03;;;;;;;4.35;2.30;;;;;;;23.71;38.83;99817.03;4497029;31;33861;-57
2022/07/07 04:59:30;;;;;;;3.58;1.85;;;;;;;23.77;38.89;99818.13;4490192;31;33306;-57
2022/07/07 05:01:58;;;;;;;3.62;2.28;;;;;;;24.00;38.41;99820.59;4497580;31;33473;-57
2022/07/07 05:04:26;;;;;;;3.50;1.90;;;;;;;23.99;38.24;99813.47;4499136;31;33479;-59
2022/07/07 05:06:53;;;;;;;5.70;2.08;;;;;;;24.08;37.39;99823.19;4496135;31;34108;-58
2022/07/07 05:09:21;;;;;;;5.30;2.67;;;;;;;24.16;37.02;99822.19;4492178;31;34714;-58
2022/07/07 05:11:49;;;;;;;3.85;1.80;;;;;;;24.13;36.87;99819.84;4489978;31;34112;-58
2022/07/07 05:14:18;;;;;;;4.03;1.92;;;;;;;24.23;36.92;99819.50;4492683;31;32406;-58
2022/07/07 05:16:46;;;;;;;3.20;1.70;;;;;;;24.31;36.76;99820.19;4493112;31;35666;-59
2022/07/07 05:19:14;;;;;;;3.12;1.73;;;;;;;24.43;36.53;99819.63;4492175;31;33840;-61
2022/07/07 05:21:41;;;;;;;5.65;2.00;;;;;;;24.48;36.69;99822.59;4491076;31;33054;-62
2022/07/07 05:24:09;;;;;;;4.10;1.98;;;;;;;24.39;37.21;99819.16;4491107;31;32292;-58
2022/07/07 05:26:37;;;;;;;3.70;1.98;;;;;;;24.68;36.54;99823.53;4493533;31;34044;-58
2022/07/07 05:29:04;;;;;;;4.05;1.80;;;;;;;24.74;36.87;99821.88;4478506;31;34069;-59
2022/07/07 05:31:32;;;;;;;5.43;2.45;;;;;;;24.72;37.38;99824.81;4492110;31;33675;-60
2022/07/07 05:34:00;;;;;;;5.30;2.72;;;;;;;24.71;36.98;99823.13;4483090;31;33206;-60
2022/07/07 05:36:27;;;;;;;5.82;2.30;;;;;;;24.86;36.64;99815.59;4492165;31;35007;-58
2022/07/07 05:38:56;;;;;;;4.82;2.70;;;;;;;24.52;37.05;99821.97;4496363;31;32720;-60
2022/07/07 05:41:23;;;;;;;4.47;2.37;;;;;;;24.60;37.08;99821.81;4482825;31;33118;-61
2022/07/07 05:43:51;;;;;;;5.12;2.37;;;;;;;24.57;36.93;99822.22;4496310;31;33727;-60
2022/07/07 05:46:19;;;;;;;3.67;2.22;;;;;;;24.84;37.09;99825.91;4494929;31;33975;-58
2022/07/07 05:48:46;;;;;;;4.35;2.72;;;;;;;25.01;36.52;99831.03;4491836;31;34144;-58
2022/07/07 05:51:14;;;;;;;3.47;2.17;;;;;;;24.83;36.32;99824.22;4492276;31;33181;-60
2022/07/07 05:53:42;;;;;;;5.12;2.50;;;;;;;24.29;36.96;99829.62;4495618;31;33855;-58
2022/07/07 05:56:09;;;;;;;4.07;2.50;;;;;;;24.83;36.58;99824.22;4492843;31;33845;-61
2022/07/07 05:58:37;;;;;;;4.25;2.35;;;;;;;25.06;36.37;99825.75;4494136;31;34966;-58
2022/07/07 06:01:05;;;;;;;7.05;2.35;;;;;;;25.37;36.15;99821.66;4487798;31;31972;-59
2022/07/07 06:03:32;;;;;;;4.80;1.92;;;;;;;25.25;36.91;99826.88;4490264;31;33513;-58
2022/07/07 06:06:01;;;;;;;3.42;2.10;;;;;;;25.50;36.21;99821.66;4486113;31;34049;-60
2022/07/07 06:08:28;;;;;;;5.12;2.67;;;;;;;25.73;35.69;99823.97;4494899;31;33921;-62
2022/07/07 06:10:56;;;;;;;4.18;2.20;;;;;;;25.54;35.65;99825.66;4493305;31;31778;-58
2022/07/07 06:13:24;;;;;;;3.53;2.00;;;;;;;25.59;34.91;99828.63;4492996;31;35063;-57
2022/07/07 06:15:52;;;;;;;5.32;2.37;;;;;;;25.79;34.41;99825.87;4495408;31;32326;-58
2022/07/07 06:18:20;;;;;;;5.15;2.30;;;;;;;25.83;34.78;99826.31;4493443;31;33729;-61
2022/07/07 06:20:47;;;;;;;3.97;2.10;;;;;;;25.84;34.54;99830.72;4492669;31;33564;-58
2022/07/07 06:23:15;;;;;;;4.68;2.12;;;;;;;25.86;35.36;99828.63;4492222;31;33440;-57
2022/07/07 06:25:45;;;;;;;5.12;2.00;;;;;;;26.23;34.30;99816.97;4490778;31;32939;-59
2022/07/07 06:28:13;;;;;;;5.15;2.10;;;;;;;25.97;34.43;99828.84;4494521;31;35553;-57
2022/07/07 06:30:40;;;;;;;3.22;1.90;;;;;;;25.99;32.86;99821.22;4492405;31;33382;-60
2022/07/07 06:33:08;;;;;;;4.07;2.00;;;;;;;26.32;32.92;99819.47;4490613;31;33807;-57
2022/07/07 06:35:36;;;;;;;4.75;2.15;;;;;;;26.12;33.78;99828.59;4489443;31;33622;-58
2022/07/07 06:38:03;;;;;;;5.30;2.03;;;;;;;26.13;32.79;99824.81;4482248;31;32299;-57
2022/07/07 06:40:32;;;;;;;3.87;2.00;;;;;;;26.47;32.99;99826.37;4494559;31;33279;-58
2022/07/07 06:42:59;;;;;;;3.92;1.90;;;;;;;26.36;33.14;99831.72;4496352;31;33907;-57
2022/07/07 06:45:29;;;;;;;4.57;2.15;;;;;;;26.58;32.92;99827.66;4482301;31;33838;-57
2022/07/07 06:47:57;;;;;;;4.30;2.20;;;;;;;26.57;32.50;99827.88;4496685;31;33629;-58
2022/07/07 06:50:25;;;;;;;4.62;2.22;;;;;;;26.45;32.38;99823.03;4493320;31;33348;-57
2022/07/07 06:52:53;;;;;;;3.55;1.92;;;;;;;26.74;31.81;99828.22;4495081;31;32070;-60
2022/07/07 06:55:21;;;;;;;4.50;2.25;;;;;;;26.68;32.44;99819.81;4496298;31;33399;-58
2022/07/07 06:57:48;;;;;;;3.60;2.00;;;;;;;26.29;32.89;99825.37;4495064;31;35176;-59
2022/07/07 07:00:16;;;;;;;3.95;2.17;;;;;;;26.51;31.89;99815.84;4495259;31;33565;-59
2022/07/07 07:02:44;;;;;;;3.97;2.10;;;;;;;26.40;32.47;99821.97;4493046;31;31376;-57
2022/07/07 07:05:12;;;;;;;4.22;2.00;;;;;;;26.34;32.85;99820.09;4486753;31;35284;-58
2022/07/07 07:07:40;;;;;;;4.85;2.12;;;;;;;26.42;32.98;99826.22;4493920;31;34829;-58
2022/07/07 07:10:08;;;;;;;3.85;1.92;;;;;;;26.75;31.69;99821.69;4492053;31;33203;-60
2022/07/07 07:12:56;;;;;;;5.80;2.30;;;;;;;26.78;32.89;99829.47;4481107;31;33130;-57
2022/07/07 07:15:44;;;;;;;3.50;1.98;;;;;;;27.05;32.26;99820.03;4479783;31;33484;-59
2022/07/07 07:18:12;;;;;;;5.47;2.08;;;;;;;26.93;32.38;99828.13;4492697;31;33798;-59
2022/07/07 07:20:40;;;;;;;5.82;2.53;;;;;;;26.91;32.89;99822.00;4494168;31;32157;-57
2022/07/07 07:23:08;;;;;;;3.90;1.98;;;;;;;26.93;32.51;99819.91;4493081;31;33792;-57
2022/07/07 07:25:35;;;;;;;6.47;2.37;;;;;;;26.95;32.15;99822.41;4493028;31;34664;-57
2022/07/07 07:28:03;;;;;;;3.97;2.20;;;;;;;26.74;32.39;99815.31;4488880;31;35786;-58
2022/07/07 07:30:31;;;;;;;4.32;2.10;;;;;;;27.07;31.71;99815.16;4494437;31;34208;-56
2022/07/07 07:32:58;;;;;;;4.85;2.53;;;;;;;26.75;31.62;99810.69;4491143;31;34071;-57
2022/07/07 07:35:27;;;;;;;4.40;2.22;;;;;;;26.85;31.89;99806.41;4480126;31;32621;-57
2022/07/07 07:37:55;;;;;;;4.82;2.00;;;;;;;26.41;33.01;99807.19;4496331;31;33989;-59
2022/07/07 07:40:22;;;;;;;4.32;2.30;;;;;;;26.59;32.86;99804.63;4492483;31;34306;-59
2022/07/07 07:42:51;;;;;;;4.85;2.17;;;;;;;26.56;33.02;99799.56;4492856;31;34143;-57
2022/07/07 07:45:20;;;;;;;4.32;1.95;;;;;;;26.89;32.26;99815.03;4492711;31;34867;-59
2022/07/07 07:47:47;;;;;;;3.33;1.77;;;;;;;27.16;31.64;99810.28;4488747;31;34159;-58
2022/07/07 07:50:17;;;;;;;4.22;2.17;;;;;;;27.17;31.58;99804.56;4497217;31;33773;-57
2022/07/07 07:52:46;;;;;;;5.05;1.87;;;;;;;26.98;32.51;99810.97;4498865;31;32558;-57
2022/07/07 07:55:15;;;;;;;5.03;2.10;;;;;;;26.75;32.71;99814.28;4496679;31;35347;-57
2022/07/07 07:57:44;;;;;;;4.95;2.00;;;;;;;26.78;32.39;99811.09;4495624;31;34076;-59
2022/07/07 08:00:14;;;;;;;4.78;2.40;;;;;;;27.05;32.07;99809.03;4496005;31;33714;-57
2022/07/07 08:02:42;;;;;;;5.97;2.45;;;;;;;27.37;32.36;99814.56;4499025;31;34216;-58
2022/07/07 08:05:11;;;;;;;4.07;2.10;;;;;;;27.12;33.65;99815.31;4498278;31;35037;-59
2022/07/07 08:07:39;;;;;;;4.03;2.15;;;;;;;27.31;32.38;99812.69;4499378;31;32446;-58
2022/07/07 08:10:09;;;;;;;7.65;2.20;;;;;;;27.46;31.67;99810.47;4497149;31;34601;-58
2022/07/07 08:12:37;;;;;;;5.03;2.17;;;;;;;27.30;31.03;99811.88;4499888;31;34106;-57
2022/07/07 08:15:06;;;;;;;3.83;2.00;;;;;;;27.55;30.93;99806.41;4489379;31;35114;-58
2022/07/07 08:17:34;;;;;;;2.72;1.90;;;;;;;27.80;30.72;99808.31;4499626;31;33754;-59
2022/07/07 08:20:03;;;;;;;6.12;2.00;;;;;;;27.75;31.32;99800.72;4497163;31;31973;-57
2022/07/07 08:22:31;;;;;;;4.07;1.90;;;;;;;27.83;30.75;99803.22;4493315;31;34002;-61
2022/07/07 08:24:58;;;;;;;5.28;2.08;;;;;;;27.67;30.87;99803.75;4500323;31;34165;-59
2022/07/07 08:27:26;;;;;;;4.20;2.17;;;;;;;27.77;30.84;99800.50;4500378;31;34174;-58
2022/07/07 08:29:54;;;;;;;4.10;2.22;;;;;;;27.77;30.87;99806.00;4496777;31;34428;-61
2022/07/07 08:32:22;;;;;;;3.60;1.73;;;;;;;27.95;30.38;99805.22;4495888;31;33677;-57
2022/07/07 08:34:49;;;;;;;3.45;1.87;;;;;;;27.99;29.93;99795.44;4499337;31;33857;-56
2022/07/07 08:37:17;;;;;;;3.50;2.10;;;;;;;27.49;31.65;99804.53;4499763;31;33884;-58
2022/07/07 08:39:45;;;;;;;4.43;2.20;;;;;;;27.69;30.23;99793.38;4484900;31;31905;-58
2022/07/07 08:42:12;;;;;;;5.80;2.00;;;;;;;27.46;30.84;99799.50;4484754;32;33793;-58
2022/07/07 08:44:40;;;;;;;4.45;1.83;;;;;;;27.51;30.09;99801.56;4484178;32;35149;-59
2022/07/07 08:47:07;;;;;;;4.85;1.92;;;;;;;27.50;31.67;99800.72;4494970;31;34259;-60
2022/07/07 08:49:35;;;;;;;6.05;2.80;;;;;;;27.43;30.84;99797.19;4496830;31;33338;-58
2022/07/07 08:52:03;;;;;;;3.47;1.70;;;;;;;27.55;30.58;99800.06;4498084;31;34050;-58
2022/07/07 08:54:33;;;;;;;6.00;2.10;;;;;;;27.52;30.49;99793.09;4496769;31;33766;-60
2022/07/07 08:57:01;;;;;;;4.12;1.85;;;;;;;27.43;30.92;99791.69;4495876;31;33597;-59
2022/07/07 08:59:28;;;;;;;8.02;2.60;;;;;;;27.33;30.87;99791.34;4492905;31;33477;-61
2022/07/07 09:02:04;;;;;;;7.75;2.10;;;;;;;27.54;30.37;99790.09;4487385;31;34632;-57
2022/07/07 09:04:31;;;;;;;4.25;2.25;;;;;;;27.49;30.29;99788.03;4485953;31;32612;-58
2022/07/07 09:07:01;;;;;;;5.25;2.15;;;;;;;27.47;30.27;99798.41;4482561;31;32581;-59
2022/07/07 09:09:44;;;;;;;3.60;2.22;;;;;;;27.15;30.82;99783.84;4490465;31;33829;-58
2022/07/07 09:12:13;;;;;;;3.95;2.47;;;;;;;26.64;31.57;99785.59;4500046;31;34133;-60
2022/07/07 09:14:45;;;;;;;4.65;2.15;;;;;;;26.99;31.20;99781.59;4496024;31;33986;-57
2022/07/07 09:17:19;;;;;;;4.37;1.90;;;;;;;27.47;30.64;99776.44;4497857;31;34744;-59
2022/07/07 09:19:58;;;;;;;5.35;1.90;;;;;;;27.51;30.94;99777.69;4499998;31;34465;-57
2022/07/07 09:22:48;;;;;;;4.18;2.33;;;;;;;27.73;30.54;99782.75;4487270;31;33715;-57
2022/07/07 09:25:18;;;;;;;9.73;2.97;;;;;;;27.48;30.89;99780.87;4484463;31;34047;-57
2022/07/07 09:27:52;;;;;;;5.68;2.20;;;;;;;27.38;30.90;99786.88;4498631;31;34051;-58
2022/07/07 09:30:40;;;;;;;7.97;2.20;;;;;;;27.75;31.38;99783.38;4492154;31;31899;-61
2022/07/07 09:33:16;;;;;;;5.20;2.15;;;;;;;27.40;30.48;99783.88;4485222;31;32540;-58
2022/07/07 09:38:31;;;;;;;4.78;2.08;;;;;;;27.81;29.00;99796.25;4497808;31;35589;-57
2022/07/07 09:41:18;;;;;;;7.80;2.33;;;;;;;27.92;29.73;99797.41;4482764;31;31693;-58
2022/07/07 09:43:53;;;;;;;5.05;1.90;;;;;;;27.93;29.55;99794.47;4491832;31;34763;-58
2022/07/07 09:46:23;;;;;;;5.90;2.30;;;;;;;27.74;29.46;99796.28;4498481;31;35301;-58
2022/07/07 09:48:50;;;;;;;3.33;1.95;;;;;;;27.48;30.72;99791.00;4500310;31;33821;-57
2022/07/07 09:51:22;;;;;;;4.22;2.20;;;;;;;27.64;30.58;99799.56;4500147;31;33252;-58
2022/07/07 09:54:00;;;;;;;4.90;2.20;;;;;;;27.98;29.10;99788.25;4498097;31;35111;-58
2022/07/07 09:56:33;;;;;;;4.10;2.12;;;;;;;28.10;29.30;99787.28;4494349;31;34948;-57
2022/07/07 09:59:04;;;;;;;5.32;1.98;;;;;;;27.69;29.37;99781.53;4498791;31;34075;-59
2022/07/07 10:01:33;;;;;;;3.45;1.85;;;;;;;28.19;29.21;99781.50;4497356;31;34581;-58
2022/07/07 10:04:05;;;;;;;4.57;1.87;;;;;;;28.14;29.48;99778.56;4498801;31;33283;-58
2022/07/07 10:06:35;;;;;;;4.53;1.75;;;;;;;27.79;28.59;99782.72;4499973;31;34890;-60
2022/07/07 10:09:05;;;;;;;5.40;2.03;;;;;;;27.90;26.81;99785.78;4492632;31;32257;-58
2022/07/07 10:11:43;;;;;;;3.95;1.60;;;;;;;28.02;26.73;99773.81;4494250;31;34576;-58
2022/07/07 10:14:27;;;;;;;2.30;1.25;;;;;;;28.32;27.15;99778.59;4494041;31;33829;-57
2022/07/07 10:16:55;;;;;;;4.37;1.80;;;;;;;28.05;28.04;99776.09;4485164;31;34018;-58
2022/07/07 10:19:25;;;;;;;3.85;1.73;;;;;;;28.47;26.18;99775.44;4497603;31;34702;-60
2022/07/07 10:21:55;;;;;;;3.10;1.65;;;;;;;28.28;26.73;99771.84;4497591;31;33602;-57
2022/07/07 10:24:26;;;;;;;3.60;1.50;;;;;;;28.38;26.72;99766.66;4486657;31;32765;-56
2022/07/07 10:26:59;;;;;;;3.08;1.45;;;;;;;27.97;27.57;99768.16;4478593;31;33701;-57
2022/07/07 10:29:47;;;;;;;5.53;1.90;;;;;;;27.93;28.29;99772.44;4495967;31;35516;-59
2022/07/07 10:32:42;;;;;;;3.08;1.67;;;;;;;27.85;28.09;99769.97;4499567;31;33521;-57
2022/07/07 10:35:10;;;;;;;;;;;;;;;28.00;28.35;99775.13;4477391;31;33961;-57
2022/07/07 10:37:40;;;;;;;2.40;1.50;;;;;;;28.31;28.47;99776.88;4499953;31;34541;-58
2022/07/07 10:40:17;;;;;;;4.30;1.92;;;;;;;27.92;29.00;99770.75;4498121;31;32336;-57
2022/07/07 10:43:12;;;;;;;3.12;1.67;;;;;;;28.01;28.77;99771.31;4483367;31;31659;-60
2022/07/07 10:45:49;;;;;;;5.00;1.98;;;;;;;27.89;29.58;99768.44;4492424;31;34339;-60
2022/07/07 10:48:39;;;;;;;4.35;1.95;;;;;;;27.76;29.43;99758.38;4482697;31;34463;-58
2022/07/07 10:51:24;;;;;;;4.22;1.73;;;;;;;27.88;29.30;99764.03;4487419;31;32503;-58
2022/07/07 10:54:03;;;;;;;6.37;2.30;;;;;;;27.47;31.64;99768.19;4495833;31;33458;-58
2022/07/07 10:56:55;;;;;;;6.87;1.85;;;;;;;27.92;30.85;99761.66;4498260;31;31857;-56
2022/07/07 10:59:23;;;;;;;4.45;2.10;;;;;;;28.14;29.96;99762.06;4483368;32;34764;-57
2022/07/07 11:02:00;;;;;;;3.70;1.95;;;;;;;28.28;29.19;99752.56;4481218;31;32545;-57
2022/07/07 11:04:47;;;;;;;3.50;1.77;;;;;;;28.26;29.46;99758.31;4494179;31;34625;-57
2022/07/07 11:07:16;;;;;;;5.97;1.80;;;;;;;28.31;29.05;99760.38;4497946;31;33772;-61
2022/07/07 11:10:05;;;;;;;4.12;2.00;;;;;;;28.23;29.22;99755.19;4497182;31;33318;-57
2022/07/07 11:12:37;;;;;;;3.47;2.10;;;;;;;27.52;30.10;99751.03;4484550;31;33886;-60
2022/07/07 11:15:14;;;;;;;3.85;2.05;;;;;;;27.75;29.98;99753.12;4498437;31;31878;-57
2022/07/07 11:17:42;;;;;;;3.47;1.98;;;;;;;27.93;29.45;99742.19;4495198;31;33765;-59
2022/07/07 11:20:25;;;;;;;3.80;1.98;;;;;;;27.38;31.29;99753.91;4493713;31;32988;-59
2022/07/07 11:23:10;;;;;;;4.47;1.90;;;;;;;27.53;30.11;99745.28;4492446;31;34063;-57
2022/07/07 11:25:38;;;;;;;;;;;;;;;27.98;29.63;99733.25;4492602;31;33356;-57
2022/07/07 11:28:07;;;;;;;3.03;1.50;;;;;;;27.82;30.26;99737.44;4498931;31;34970;-57
2022/07/07 11:30:36;;;;;;;4.12;1.70;;;;;;;27.35;31.49;99734.25;4483712;31;34001;-59
2022/07/07 11:33:04;;;;;;;3.12;1.90;;;;;;;27.33;31.28;99737.22;4488383;31;35446;-59
2022/07/07 11:35:37;;;;;;;4.12;2.00;;;;;;;27.70;31.04;99725.47;4499026;31;33689;-60
2022/07/07 11:38:11;;;;;;;5.80;1.80;;;;;;;27.99;30.38;99729.41;4495929;31;33516;-57
2022/07/07 11:40:39;;;;;;;3.72;2.08;;;;;;;28.03;29.35;99734.25;4498310;31;35365;-58
2022/07/07 11:43:23;;;;;;;5.22;2.05;;;;;;;27.59;30.85;99730.66;4496217;31;33771;-61
2022/07/07 11:45:51;;;;;;;4.75;2.12;;;;;;;27.69;30.45;99718.28;4493845;31;32924;-59
2022/07/07 11:48:19;;;;;;;3.85;2.08;;;;;;;26.88;31.17;99714.50;4497184;31;33348;-58